Atalissa, IA

12:13 PM CDT on April 18, 2015 (GMT -0500)
Davenport Municipal | | Change Station
CLOSE
Current Station
Airport
Location: Davenport,
Elevation: 755 ft
Nearby Weather Stations

Elev 755 ft 41.61 °N, 90.59 °W | Updated 21 minutes ago

Partly Cloudy
Partly Cloudy
75 °F
Feels Like 75 °F
N
14
Wind Variable Wind from ESE

Today
High -- | Low -- °F
--% Chance of Precip.
Yesterday
High -- | Low -- °F
Precip. -- in
6:20 AM 7:48 PM
Waning Crescent, 0% visible
Pressure 30.00 in
Visibility 10.0 miles
Clouds Clear
Dew Point 51 °F
Humidity 43%
Rainfall 0.00 in
Snow Depth Not available.
UV 9 out of 12
Pollen 7.40 out of 12
Air Quality Not available.
Flu Activity Local Activity
METAR KDVN 181652Z AUTO 11012KT 10SM CLR 24/11 A3001 RMK AO2 SLP158 T02390106 $

More Conditions Fewer Conditions

Pressure 30.00 in
Visibility 10.0 miles
Clouds Clear
Dew Point 51 °F
Humidity 43%
Rainfall 0.00 in
Snow Depth Not available.
UV 9 out of 12
Pollen 7.40 out of 12
Air Quality Not available.
Flu Activity Local Activity
METAR KDVN 181652Z AUTO 11012KT 10SM CLR 24/11 A3001 RMK AO2 SLP158 T02390106 $

More Conditions Fewer Conditions

10-Day Weather Forecast

Almanac

Astronomy

Apr. 18, 2015 Rise Set
Actual Time
Civil Twilight
Nautical Twilight
Astronomical Twilight
Moon
Length of Visible Light
Length of Day
Tomorrow will be .
, % of the Moon is Illuminated

Today's Extremes

State Highs State Lows

Community

WunderPhotos

Upload Photos

1,814,464 photos uploaded!

WunderBlogs® & News

Nearby

Air Quality

  Air Quality AQ Index Pollutant
Not available.

Snow Depth

Station Depth Elevation

Earthquake Activity

City Distance Mag. Time & Date
Minimum magnitude displayed is 2.5.

Coastal Water Temperatures

Place Temperature

Stations

Nearby Weather Stations

Station Location Temp. Windchill Dew Point Humidity Wind Precip. Elev Updated Type